Time;durP1;ratioP1;P1;durP2;ratioP2;P2;SDS_P1;SDS_P2;PMS_P1;PMS_P2;Temp;Humidity;BMP_temperature;BMP_pressure;BME280_temperature;BME280_humidity;BME280_pressure;Samples;Min_cycle;Max_cycle;Signal;HPM_P1;HPM_P2
2023/02/07 00:01:40;;;;;;;29.42;13.40;;;6.70;99.90;;;6.93;76.13;103878.56;5097115;28;20055;-67
2023/02/07 00:04:10;;;;;;;37.30;13.38;;;6.70;99.90;;;6.95;76.58;103873.41;5097199;28;20371;-67
2023/02/07 00:06:38;;;;;;;32.72;14.18;;;6.60;99.90;;;6.94;76.62;103866.31;5097795;28;20082;-66
2023/02/07 00:09:08;;;;;;;34.58;13.77;;;6.70;99.90;;;7.12;77.21;103865.66;5097150;28;20472;-67
2023/02/07 00:11:39;;;;;;;38.03;13.25;;;6.80;99.90;;;7.17;77.15;103858.03;5097167;28;20048;-67
2023/02/07 00:14:10;;;;;;;37.53;14.30;;;6.90;99.90;;;7.21;77.61;103846.84;5097120;28;20066;-66
2023/02/07 00:16:39;;;;;;;38.78;13.80;;;6.90;99.90;;;7.24;77.82;103852.28;5097320;28;20043;-67
2023/02/07 00:19:09;;;;;;;34.67;12.85;;;7.00;99.90;;;7.28;77.95;103844.66;5096944;28;20093;-66
2023/02/07 00:21:37;;;;;;;37.20;14.05;;;7.00;99.90;;;7.24;77.93;103849.66;5078914;28;20135;-67
2023/02/07 00:24:07;;;;;;;33.35;14.15;;;7.00;99.90;;;7.25;77.88;103849.75;5096818;28;20095;-66
2023/02/07 00:26:36;;;;;;;28.67;13.30;;;7.00;99.90;;;7.24;78.12;103849.66;5096752;28;20132;-67
2023/02/07 00:29:04;;;;;;;41.13;13.30;;;7.00;99.90;;;7.23;78.31;103851.41;5097025;28;20455;-67
2023/02/07 00:31:35;;;;;;;32.83;12.65;;;7.00;99.90;;;7.25;77.90;103848.84;5078773;28;20078;-67
2023/02/07 00:34:05;;;;;;;;;;;7.00;99.90;;;7.07;76.88;103850.41;5097461;28;20135;-67
2023/02/07 00:36:36;;;;;;;25.40;13.30;;;6.90;99.90;;;6.98;76.40;103850.81;5096697;28;19920;-66
2023/02/07 00:39:10;;;;;;;29.98;13.73;;;6.80;99.90;;;6.85;76.71;103852.63;5078703;28;20044;-66
2023/02/07 00:41:39;;;;;;;32.17;13.43;;;6.70;99.90;;;6.84;77.36;103843.81;5096883;28;20043;-67
2023/02/07 00:44:07;;;;;;;28.83;13.63;;;6.60;99.90;;;6.83;76.69;103843.75;5078155;28;20039;-66
2023/02/07 00:46:36;;;;;;;31.98;12.95;;;6.60;99.90;;;6.84;76.77;103843.81;5096723;28;20105;-67
2023/02/07 00:49:06;;;;;;;37.05;13.80;;;6.60;99.90;;;6.73;76.95;103837.03;5078464;28;20048;-67
2023/02/07 00:51:36;;;;;;;31.17;13.57;;;6.50;99.90;;;6.74;76.77;103843.19;5096559;28;20080;-67
2023/02/07 00:54:05;;;;;;;25.90;13.38;;;6.50;99.90;;;6.59;76.81;103829.13;5078374;28;20085;-67
2023/02/07 00:56:33;;;;;;;28.80;13.32;;;6.40;99.90;;;5.84;76.76;103704.59;5078367;28;20044;-67
2023/02/07 00:59:02;;;;;;;35.80;13.32;;;6.30;99.90;;;6.55;76.94;103838.56;5078282;28;20067;-66
2023/02/07 01:01:31;;;;;;;33.40;13.98;;;6.30;99.90;;;6.60;77.29;103837.09;5078531;28;20066;-67
2023/02/07 01:03:59;;;;;;;30.23;12.93;;;6.30;99.90;;;6.64;77.24;103827.72;5096013;28;20036;-67
2023/02/07 01:06:32;;;;;;;31.40;12.75;;;6.40;99.90;;;6.55;77.41;103828.06;5096343;28;20119;-67
2023/02/07 01:09:03;;;;;;;27.73;12.48;;;6.30;99.90;;;6.34;76.62;103835.56;5096336;28;20036;-68
2023/02/07 01:11:32;;;;;;;28.65;12.15;;;6.20;99.90;;;6.16;77.00;103831.81;5096195;28;20039;-67
2023/02/07 01:14:01;;;;;;;30.75;12.45;;;5.90;99.90;;;6.20;77.97;103825.94;5095916;28;20382;-67
2023/02/07 01:16:32;;;;;;;23.38;10.85;;;6.00;99.90;;;6.43;78.58;103831.69;5095842;28;20055;-67
2023/02/07 01:19:04;;;;;;;20.20;11.77;;;6.20;99.90;;;6.48;78.42;103836.41;5096134;28;20062;-67
2023/02/07 01:21:32;;;;;;;30.58;13.13;;;6.20;99.90;;;6.45;79.07;103832.66;5096056;28;20040;-69
2023/02/07 01:24:02;;;;;;;32.70;12.25;;;6.20;99.90;;;6.23;79.42;103805.09;5095639;28;20156;-67
2023/02/07 01:26:30;;;;;;;32.63;13.55;;;6.10;99.90;;;6.30;80.04;103830.94;5095657;28;20071;-67
2023/02/07 01:28:59;;;;;;;25.70;13.07;;;6.10;99.90;;;6.24;79.58;103824.41;5095665;28;20048;-67
2023/02/07 01:31:28;;;;;;;37.33;13.50;;;6.10;99.90;;;6.26;79.30;103839.47;5095915;28;20044;-66
2023/02/07 01:33:59;;;;;;;31.10;12.63;;;6.10;99.90;;;6.48;79.92;103830.22;5095525;28;20180;-68
2023/02/07 01:36:29;;;;;;;28.60;12.50;;;6.10;99.90;;;6.41;79.33;103830.69;5095800;28;20036;-68
2023/02/07 01:38:58;;;;;;;38.93;13.47;;;6.10;99.90;;;6.38;79.57;103834.94;5095525;28;20039;-66
2023/02/07 01:41:28;;;;;;;24.38;12.68;;;6.20;99.90;;;6.34;79.10;103835.56;5095636;28;20539;-67
2023/02/07 01:44:00;;;;;;;29.13;13.18;;;6.10;99.90;;;6.26;79.20;103839.47;5077393;28;20134;-67
2023/02/07 01:46:31;;;;;;;28.70;12.82;;;6.10;99.90;;;6.13;78.78;103842.16;5095671;28;20044;-67
2023/02/07 01:49:05;;;;;;;27.73;13.43;;;6.00;99.90;;;5.38;79.16;103720.09;5095630;28;20051;-67
2023/02/07 01:51:35;;;;;;;35.42;13.70;;;5.90;99.90;;;6.17;79.75;103851.13;5077432;28;20135;-67
2023/02/07 01:54:08;;;;;;;38.58;14.85;;;5.90;99.90;;;6.21;81.20;103850.50;5077300;28;20378;-67
2023/02/07 01:56:45;;;;;;;39.70;13.38;;;6.00;99.90;;;6.31;81.86;103850.22;5095176;28;20032;-66
2023/02/07 01:59:15;;;;;;;37.63;13.80;;;6.10;99.90;;;6.40;81.71;103848.19;5077012;28;20048;-66
2023/02/07 02:01:45;;;;;;;32.60;13.55;;;6.20;99.90;;;6.17;82.35;103845.88;5095373;28;20072;-66
2023/02/07 02:04:13;;;;;;;43.20;16.08;;;6.10;99.90;;;6.05;83.16;103853.00;5095171;28;20089;-67
2023/02/07 02:06:43;;;;;;;40.08;15.43;;;6.00;99.90;;;5.80;83.80;103852.25;5077023;28;20046;-67
2023/02/07 02:09:14;;;;;;;39.42;14.90;;;5.80;99.90;;;5.62;85.29;103848.47;5077063;28;20048;-66
2023/02/07 02:12:10;;;;;;;34.42;15.15;;;5.60;99.90;;;5.65;85.42;103846.03;5076980;28;20044;-67
2023/02/07 02:15:07;;;;;;;35.45;15.48;;;5.50;99.90;;;5.53;86.27;103859.31;5095052;28;20093;-66
2023/02/07 02:17:56;;;;;;;33.58;14.95;;;5.40;99.90;;;5.28;86.88;103850.66;5069295;28;20048;-66
2023/02/07 02:21:18;;;;;;;33.53;14.40;;;5.10;99.90;;;5.14;87.99;103835.72;5094661;28;20047;-67
2023/02/07 02:24:37;;;;;;;45.73;16.10;;;5.10;99.90;;;5.03;88.61;103835.00;5024865;28;20516;-66
2023/02/07 02:27:17;;;;;;;37.43;14.67;;;5.00;99.90;;;4.98;89.39;103841.69;5012369;28;20393;-67
2023/02/07 02:30:32;;;;;;;38.28;15.55;;;4.90;99.90;;;4.44;90.08;103728.84;5082405;28;20560;-66
2023/02/07 02:33:42;;;;;;;34.43;15.50;;;4.90;99.90;;;5.45;89.62;103840.44;5094676;28;20128;-66
2023/02/07 02:36:22;;;;;;;35.30;14.50;;;5.30;99.90;;;5.57;89.43;103844.66;4976443;28;20069;-66
2023/02/07 02:38:59;;;;;;;31.52;14.88;;;5.40;99.90;;;5.63;88.33;103843.34;5085851;28;20097;-66
2023/02/07 02:41:35;;;;;;;32.90;16.30;;;5.50;99.90;;;5.48;88.20;103824.88;5076375;28;20511;-66
2023/02/07 02:44:11;;;;;;;32.57;15.77;;;5.50;99.90;;;5.51;87.85;103834.66;5076175;28;20512;-66
2023/02/07 02:46:41;;;;;;;38.30;15.57;;;5.50;99.90;;;5.54;88.09;103837.47;5076303;28;20075;-66
2023/02/07 02:49:15;;;;;;;38.40;14.88;;;5.40;99.90;;;5.73;87.77;103839.56;5076131;28;20047;-66
2023/02/07 02:51:43;;;;;;;32.50;14.85;;;5.60;99.90;;;5.81;87.39;103835.66;5094363;28;20071;-66
2023/02/07 02:54:32;;;;;;;34.38;16.70;;;5.70;99.90;;;5.68;86.97;103840.97;5076060;28;20490;-66
2023/02/07 02:57:43;;;;;;;30.85;14.90;;;5.60;99.90;;;5.84;86.84;103821.06;5076006;28;20478;-66
2023/02/07 03:00:29;;;;;;;37.53;15.48;;;5.70;99.90;;;5.89;86.77;103810.81;5075893;28;20048;-67
2023/02/07 03:03:20;;;;;;;33.83;15.05;;;5.70;99.90;;;5.97;86.38;103817.47;5093860;28;20075;-66
2023/02/07 03:06:03;;;;;;;36.45;14.57;;;5.80;99.90;;;6.02;85.51;103818.69;5075839;28;20138;-66
2023/02/07 03:08:41;;;;;;;36.15;14.50;;;5.80;99.90;;;6.03;85.63;103817.84;5075921;28;20044;-66
2023/02/07 03:11:14;;;;;;;30.85;15.50;;;5.90;99.90;;;5.96;84.97;103792.03;5094008;28;20067;-66
2023/02/07 03:13:59;;;;;;;31.38;14.70;;;5.90;99.90;;;6.07;85.00;103809.34;5093964;28;20040;-66
2023/02/07 03:16:36;;;;;;;27.42;14.27;;;5.90;99.90;;;5.94;84.55;103797.16;5093872;28;20059;-66
2023/02/07 03:19:10;;;;;;;31.73;13.85;;;5.90;99.90;;;5.56;85.51;103813.94;5093896;28;20375;-66
2023/02/07 03:21:45;;;;;;;34.03;15.40;;;5.50;99.90;;;4.92;86.28;103712.78;5093557;28;20067;-66
2023/02/07 03:24:17;;;;;;;31.85;15.23;;;5.40;99.90;;;5.46;86.96;103804.56;5093575;28;20401;-66
2023/02/07 03:26:51;;;;;;;29.42;15.15;;;5.30;99.90;;;5.48;86.81;103790.75;5093767;28;20043;-67
2023/02/07 03:29:22;;;;;;;35.15;15.50;;;5.40;99.90;;;5.70;86.58;103803.50;5075620;28;20082;-66
2023/02/07 03:31:56;;;;;;;30.55;15.25;;;5.50;99.90;;;5.75;86.25;103802.06;5093369;28;20044;-66
2023/02/07 03:34:29;;;;;;;32.20;14.90;;;5.60;99.90;;;5.81;85.73;103794.56;5092514;28;20083;-66
2023/02/07 03:37:04;;;;;;;31.90;15.07;;;5.70;99.90;;;5.83;85.77;103795.59;5093296;28;20040;-66
2023/02/07 03:39:33;;;;;;;40.20;16.27;;;5.70;99.90;;;5.73;85.28;103800.16;5093295;28;20456;-67
2023/02/07 03:42:07;;;;;;;37.20;15.70;;;5.70;99.90;;;5.67;85.69;103802.41;5093203;28;20036;-66
2023/02/07 03:44:38;;;;;;;33.55;15.85;;;5.60;99.90;;;5.46;85.48;103799.31;5093212;28;20062;-66
2023/02/07 03:47:06;;;;;;;36.30;15.45;;;5.40;99.90;;;5.39;86.11;103802.38;5093295;28;20131;-66
2023/02/07 03:49:34;;;;;;;30.57;14.97;;;5.30;99.90;;;5.21;86.69;103807.38;5075260;28;20621;-66
2023/02/07 03:52:04;;;;;;;30.93;16.20;;;5.20;99.90;;;4.94;87.67;103799.41;5093432;28;20044;-67
2023/02/07 03:54:33;;;;;;;31.48;15.02;;;4.90;99.90;;;5.06;88.10;103797.59;5093407;28;20075;-66
2023/02/07 03:57:01;;;;;;;34.27;17.80;;;4.90;99.90;;;5.04;87.96;103801.84;5093367;28;20036;-66
2023/02/07 03:59:30;;;;;;;35.63;16.57;;;4.90;99.90;;;5.25;88.17;103804.13;5093090;28;20489;-67
2023/02/07 04:01:58;;;;;;;30.37;15.17;;;5.10;99.90;;;5.35;88.02;103800.38;5093105;28;20500;-66
2023/02/07 04:04:26;;;;;;;38.53;18.70;;;5.20;99.90;;;5.40;87.58;103807.72;5093181;28;20439;-67
2023/02/07 04:06:55;;;;;;;27.73;15.80;;;5.30;99.90;;;5.47;87.30;103816.91;5093021;28;20044;-66
2023/02/07 04:09:26;;;;;;;30.33;15.90;;;5.30;99.90;;;5.40;87.32;103810.34;5092961;28;20493;-66
2023/02/07 04:11:55;;;;;;;33.35;17.08;;;5.30;99.90;;;5.56;86.76;103816.56;5093187;28;20479;-66
2023/02/07 04:14:23;;;;;;;33.63;17.10;;;5.40;99.90;;;5.57;86.44;103815.78;5075087;28;20044;-66
2023/02/07 04:16:51;;;;;;;36.75;16.88;;;5.50;99.90;;;5.50;86.18;103812.75;5075001;28;20091;-67
2023/02/07 04:19:20;;;;;;;34.55;17.02;;;5.40;99.90;;;5.61;86.40;103802.94;5092848;28;20501;-67
2023/02/07 04:21:48;;;;;;;33.92;16.83;;;5.50;99.90;;;5.68;85.76;103799.88;5092792;28;20032;-66
2023/02/07 04:24:17;;;;;;;36.42;17.40;;;5.50;99.90;;;5.66;85.68;103808.47;5092466;28;20591;-67
2023/02/07 04:26:46;;;;;;;39.97;18.15;;;5.60;99.90;;;5.59;85.74;103807.19;5093197;28;20070;-66
2023/02/07 04:29:15;;;;;;;35.20;18.35;;;5.50;99.90;;;5.38;85.76;103811.09;5093048;28;20474;-66
2023/02/07 04:31:43;;;;;;;41.13;18.40;;;5.40;99.90;;;5.13;86.89;103805.06;5092959;28;20079;-66
2023/02/07 04:34:12;;;;;;;43.17;18.75;;;5.10;99.90;;;5.21;87.15;103795.94;5092720;28;20044;-66
2023/02/07 04:36:40;;;;;;;34.42;17.88;;;5.10;99.90;;;5.33;87.01;103783.63;5092726;28;20063;-67
2023/02/07 04:39:09;;;;;;;44.78;18.98;;;5.30;99.90;;;5.46;86.91;103810.75;5092702;28;20047;-66
2023/02/07 04:41:38;;;;;;;38.78;18.15;;;5.30;99.90;;;5.16;86.40;103800.94;5074769;28;20040;-66
2023/02/07 04:44:07;;;;;;;36.75;17.90;;;5.10;99.90;;;4.99;87.49;103798.00;5092543;28;20040;-67
2023/02/07 04:46:36;;;;;;;41.38;19.90;;;4.90;99.90;;;4.98;87.67;103804.06;5094880;28;20051;-66
2023/02/07 04:49:04;;;;;;;38.72;18.90;;;4.90;99.90;;;5.07;87.62;103807.28;5096399;28;20044;-66
2023/02/07 04:51:33;;;;;;;36.10;18.58;;;4.90;99.90;;;5.19;87.43;103803.72;5096628;28;20040;-66
2023/02/07 04:54:01;;;;;;;35.43;19.60;;;5.00;99.90;;;5.23;87.09;103803.13;5096311;28;20039;-66
2023/02/07 04:56:30;;;;;;;38.90;19.60;;;5.10;99.90;;;5.35;87.21;103792.50;5096285;28;20079;-66
2023/02/07 04:58:58;;;;;;;39.23;19.63;;;5.20;99.90;;;5.35;86.80;103780.28;5096194;28;20117;-66
2023/02/07 05:01:28;;;;;;;42.88;19.88;;;5.20;99.90;;;5.34;86.46;103788.06;5096130;28;20044;-66
2023/02/07 05:03:56;;;;;;;40.83;19.90;;;5.30;99.90;;;5.37;86.42;103783.00;5096198;28;20040;-66
2023/02/07 05:06:24;;;;;;;39.00;20.48;;;5.30;99.90;;;5.47;85.98;103793.28;5078067;28;20079;-66
2023/02/07 05:08:53;;;;;;;47.22;20.38;;;5.30;99.90;;;5.47;85.77;103796.81;5095945;28;20067;-66
2023/02/07 05:11:21;;;;;;;39.42;20.00;;;5.40;99.90;;;5.56;85.68;103801.72;5096291;28;20036;-66
2023/02/07 05:13:50;;;;;;;39.67;20.33;;;5.40;99.90;;;5.55;85.26;103801.63;5095893;28;20481;-66
2023/02/07 05:16:18;;;;;;;43.47;19.98;;;5.40;99.90;;;5.52;85.07;103804.97;5095854;28;20055;-67
2023/02/07 05:18:48;;;;;;;43.42;21.10;;;5.40;99.90;;;5.59;84.85;103806.28;5095850;28;20603;-66
2023/02/07 05:21:16;;;;;;;37.78;20.73;;;5.40;99.90;;;5.60;84.73;103792.31;5077907;28;20058;-65
2023/02/07 05:23:44;;;;;;;36.58;20.58;;;5.50;99.90;;;5.61;84.62;103799.41;5095757;28;20040;-66
2023/02/07 05:26:13;;;;;;;38.67;19.63;;;5.50;99.90;;;5.65;84.36;103804.94;5095361;28;20060;-66
2023/02/07 05:28:42;;;;;;;39.17;19.38;;;5.50;99.90;;;5.67;83.91;103812.91;5095609;28;20048;-66
2023/02/07 05:31:10;;;;;;;40.47;20.83;;;5.50;99.90;;;5.65;83.87;103806.66;5095616;28;20051;-66
2023/02/07 05:33:38;;;;;;;41.37;19.87;;;5.50;99.90;;;5.69;83.78;103808.66;5095550;28;20033;-66
2023/02/07 05:36:09;;;;;;;38.50;20.73;;;5.50;99.90;;;5.66;83.61;103809.38;5095480;28;20040;-66
2023/02/07 05:38:37;;;;;;;43.55;20.05;;;5.50;99.90;;;5.67;83.34;103810.28;5095422;28;20059;-66
2023/02/07 05:41:06;;;;;;;46.37;22.87;;;5.50;99.90;;;5.68;83.66;103806.84;5095321;28;20039;-66
2023/02/07 05:43:34;;;;;;;44.33;21.40;;;5.50;99.90;;;5.51;83.54;103774.28;5095310;28;20040;-66
2023/02/07 05:46:03;;;;;;;39.58;19.88;;;5.60;99.90;;;5.65;83.31;103802.31;5095223;28;20143;-67
2023/02/07 05:48:31;;;;;;;35.50;19.92;;;5.60;99.90;;;5.68;83.29;103805.13;5095320;28;20393;-67
2023/02/07 05:50:59;;;;;;;51.55;22.33;;;5.60;99.90;;;5.65;83.50;103806.66;5095284;28;20040;-66
2023/02/07 05:53:29;;;;;;;39.85;20.75;;;5.60;99.90;;;5.71;83.31;103807.94;5077293;28;20052;-66
2023/02/07 05:55:57;;;;;;;36.95;21.50;;;5.60;99.90;;;5.67;83.16;103805.91;5095450;28;20044;-66
2023/02/07 05:58:25;;;;;;;43.45;21.23;;;5.60;99.90;;;5.62;83.45;103815.25;5094197;28;20040;-66
2023/02/07 06:00:55;;;;;;;43.80;21.88;;;5.50;99.90;;;5.57;83.06;103813.16;5095270;28;20131;-67
2023/02/07 06:03:23;;;;;;;42.30;21.15;;;5.40;99.90;;;5.55;83.09;103815.69;5095015;28;20478;-66
2023/02/07 06:05:52;;;;;;;39.35;21.17;;;5.40;99.90;;;5.55;82.96;103815.69;5094878;28;20044;-66
2023/02/07 06:08:20;;;;;;;43.13;22.63;;;5.40;99.90;;;5.45;82.93;103806.31;5095373;28;20044;-66
2023/02/07 06:10:50;;;;;;;48.38;22.80;;;5.40;99.90;;;5.46;82.72;103815.06;5094853;28;20428;-67
2023/02/07 06:13:18;;;;;;;39.72;21.52;;;5.40;99.90;;;5.43;82.86;103825.41;5094752;28;20044;-66
2023/02/07 06:15:47;;;;;;;44.27;22.60;;;5.40;99.90;;;5.32;82.97;103826.44;5095001;28;20051;-66
2023/02/07 06:18:16;;;;;;;46.15;22.05;;;5.20;99.90;;;5.31;82.87;103824.59;5094637;28;20048;-66
2023/02/07 06:20:44;;;;;;;40.87;21.63;;;5.20;99.90;;;5.26;82.91;103816.47;5094617;28;20127;-65
2023/02/07 06:23:13;;;;;;;45.27;22.97;;;5.10;99.90;;;5.18;83.24;103816.75;5094572;28;20050;-65
2023/02/07 06:25:41;;;;;;;43.57;22.17;;;5.10;99.90;;;5.28;83.06;103838.44;5094111;28;20044;-66
2023/02/07 06:28:11;;;;;;;37.97;22.30;;;5.10;99.90;;;5.21;83.09;103836.22;5094470;28;20054;-65
2023/02/07 06:30:40;;;;;;;49.17;23.75;;;5.10;99.90;;;5.23;83.32;103842.47;5094592;28;20056;-65
2023/02/07 06:33:08;;;;;;;48.10;22.70;;;5.10;99.90;;;5.23;83.02;103841.56;5094308;28;20405;-65
2023/02/07 06:35:37;;;;;;;43.63;22.83;;;5.10;99.90;;;5.21;83.40;103835.31;5094739;28;20071;-64
2023/02/07 06:38:05;;;;;;;48.37;24.00;;;5.00;99.90;;;5.23;83.33;103832.00;5094311;28;20196;-62
2023/02/07 06:40:34;;;;;;;53.07;24.63;;;5.10;99.90;;;5.24;82.98;103840.78;5076459;28;20047;-63
2023/02/07 06:43:02;;;;;;;45.28;24.02;;;5.10;99.90;;;5.23;83.12;103837.22;5094123;28;20561;-62
2023/02/07 06:45:32;;;;;;;44.72;23.17;;;5.10;99.90;;;5.25;82.70;103845.19;5076037;28;20047;-63
2023/02/07 06:48:00;;;;;;;42.50;24.35;;;5.10;99.90;;;4.87;83.03;103795.50;5076223;28;20052;-64
2023/02/07 06:50:28;;;;;;;52.70;26.13;;;5.10;99.90;;;5.24;82.78;103843.41;5094259;28;20119;-63
2023/02/07 06:53:00;;;;;;;47.00;25.97;;;5.10;99.90;;;5.24;83.13;103844.31;5076043;28;20040;-64
2023/02/07 06:55:30;;;;;;;59.73;28.40;;;5.10;99.90;;;4.75;83.05;103838.34;5094504;28;20109;-63
2023/02/07 06:57:58;;;;;;;58.20;28.77;;;4.80;99.90;;;4.64;84.46;103832.41;5093869;28;20478;-63
2023/02/07 07:00:27;;;;;;;56.83;27.00;;;4.60;99.90;;;4.77;84.38;103840.28;5093847;28;20040;-63
2023/02/07 07:02:58;;;;;;;50.57;27.13;;;4.60;99.90;;;4.84;84.53;103838.97;5093804;28;20093;-63
2023/02/07 07:05:28;;;;;;;54.20;29.87;;;4.70;99.90;;;4.85;84.21;103840.78;5093740;28;20064;-64
2023/02/07 07:07:56;;;;;;;60.77;29.03;;;4.70;99.90;;;4.80;84.24;103836.97;5093943;28;20042;-63
2023/02/07 07:10:24;;;;;;;63.90;32.05;;;4.70;99.90;;;4.93;83.98;103848.38;5093501;28;20517;-63
2023/02/07 07:12:53;;;;;;;62.17;32.53;;;4.80;99.90;;;4.88;84.00;103846.25;5093574;28;20040;-63
2023/02/07 07:15:21;;;;;;;70.80;33.77;;;4.80;99.90;;;4.81;84.10;103849.25;5093782;28;20139;-64
2023/02/07 07:17:50;;;;;;;166.47;36.33;;;4.80;99.90;;;4.63;84.13;103855.91;5093388;28;20041;-64
2023/02/07 07:20:20;;;;;;;102.83;36.97;;;4.70;99.90;;;4.22;85.17;103860.94;5093396;28;20089;-64
2023/02/07 07:22:49;;;;;;;131.48;35.72;;;4.30;99.90;;;4.04;86.22;103863.19;5093769;28;20044;-64
2023/02/07 07:25:17;;;;;;;212.60;39.93;;;4.10;99.90;;;3.55;87.40;103869.25;5093314;28;20048;-63
2023/02/07 07:27:46;;;;;;;155.30;39.77;;;3.70;99.90;;;3.45;88.44;103871.09;5093641;28;20071;-63
2023/02/07 07:30:15;;;;;;;200.57;39.17;;;3.40;99.90;;;3.35;89.39;103866.91;5093358;28;20062;-66
2023/02/07 07:32:43;;;;;;;134.93;38.43;;;3.30;99.90;;;3.55;89.95;103876.19;5093702;28;20086;-64
2023/02/07 07:35:11;;;;;;;71.50;38.27;;;3.40;99.90;;;3.63;89.95;103855.03;5093536;28;20489;-65
2023/02/07 07:37:41;;;;;;;226.47;42.37;;;3.50;99.90;;;3.71;89.89;103875.59;5093150;28;20086;-62
2023/02/07 07:40:11;;;;;;;177.80;41.30;;;3.60;99.90;;;3.41;90.08;103880.44;5093196;28;20139;-62
2023/02/07 07:42:40;;;;;;;75.72;38.60;;;3.50;99.90;;;3.30;90.80;103876.13;5093303;28;20432;-63
2023/02/07 07:45:28;;;;;;;319.30;43.83;;;3.30;99.90;;;2.93;91.02;103878.50;5092647;28;20090;-62
2023/02/07 07:47:57;;;;;;;251.63;40.80;;;3.00;99.90;;;2.59;91.87;103883.81;5093144;28;20056;-63
2023/02/07 07:50:25;;;;;;;148.80;39.33;;;2.70;99.90;;;2.57;93.85;103882.81;5093105;28;20047;-62
2023/02/07 07:52:55;;;;;;;160.67;40.43;;;2.60;99.90;;;2.69;93.97;103883.72;5093095;28;20127;-62
2023/02/07 07:55:25;;;;;;;81.95;40.28;;;2.60;99.90;;;2.91;94.20;103882.72;5093129;28;20056;-62
2023/02/07 07:57:53;;;;;;;249.07;44.27;;;2.80;99.90;;;2.94;93.93;103888.19;5093135;28;20455;-63
2023/02/07 08:00:22;;;;;;;244.30;43.63;;;2.80;99.90;;;2.74;93.35;103887.63;5075113;28;20051;-63
2023/02/07 08:02:50;;;;;;;81.43;37.23;;;2.70;99.90;;;2.62;93.96;103878.84;5093434;28;20048;-66
2023/02/07 08:05:19;;;;;;;256.80;43.17;;;2.50;99.90;;;2.38;94.51;103869.13;5093031;28;20036;-66
2023/02/07 08:07:47;;;;;;;94.97;38.13;;;2.40;99.90;;;2.52;95.41;103885.84;5092792;28;20560;-67
2023/02/07 08:10:17;;;;;;;134.30;38.50;;;2.40;99.90;;;2.48;95.26;103862.88;5093459;28;20142;-66
2023/02/07 08:12:45;;;;;;;102.82;37.47;;;2.50;99.90;;;2.53;95.27;103888.59;5093126;28;20436;-66
2023/02/07 08:15:14;;;;;;;113.27;36.37;;;2.50;99.90;;;2.37;96.09;103896.03;5093158;28;20044;-66
2023/02/07 08:17:42;;;;;;;55.80;35.90;;;2.30;99.90;;;2.59;96.00;103888.16;5093128;28;20121;-66
2023/02/07 08:20:11;;;;;;;125.93;38.27;;;2.30;99.90;;;2.63;96.43;103890.22;5075092;28;20040;-66
2023/02/07 08:22:40;;;;;;;93.77;35.37;;;2.40;99.90;;;2.31;96.42;103894.66;5096931;28;20442;-66
2023/02/07 08:25:09;;;;;;;65.50;36.77;;;2.20;99.90;;;2.64;96.74;103882.47;5096585;28;20474;-66
2023/02/07 08:27:39;;;;;;;65.73;39.50;;;2.50;99.90;;;2.91;97.02;103886.25;5096815;28;20138;-67
2023/02/07 08:30:11;;;;;;;264.77;47.25;;;2.70;99.90;;;2.81;96.56;103880.25;5096793;28;20044;-66
2023/02/07 08:32:40;;;;;;;89.27;42.57;;;2.70;99.90;;;3.03;96.49;103886.25;5097001;28;20202;-66
2023/02/07 08:35:09;;;;;;;118.47;42.13;;;2.80;99.90;;;3.12;96.05;103884.31;5096623;28;20090;-67
2023/02/07 08:37:38;;;;;;;85.72;42.20;;;3.00;99.90;;;3.18;96.11;103890.00;5097204;28;20044;-66
2023/02/07 08:40:08;;;;;;;108.37;41.73;;;3.00;99.90;;;3.00;95.20;103862.50;5096926;28;20044;-66
2023/02/07 08:42:38;;;;;;;102.55;40.50;;;3.10;99.90;;;3.17;95.26;103891.72;5096522;28;20040;-66
2023/02/07 08:45:07;;;;;;;97.13;43.67;;;3.10;99.90;;;3.31;95.00;103900.59;5097117;28;20176;-67
2023/02/07 08:47:36;;;;;;;120.93;42.10;;;3.20;99.90;;;2.99;94.87;103882.50;5096749;28;20066;-64
2023/02/07 08:50:06;;;;;;;168.30;45.60;;;3.00;99.90;;;2.71;95.11;103884.75;5096363;28;20054;-64
2023/02/07 08:52:35;;;;;;;113.45;45.08;;;2.70;99.90;;;2.72;95.84;103890.91;5078630;28;20062;-64
2023/02/07 08:55:04;;;;;;;342.23;51.10;;;2.50;99.90;;;2.61;96.41;103895.28;5096849;28;20079;-64
2023/02/07 08:57:32;;;;;;;110.73;43.47;;;2.40;99.90;;;2.60;96.55;103898.72;5096252;28;20398;-64
2023/02/07 09:00:02;;;;;;;151.40;46.67;;;2.50;99.90;;;2.17;96.67;103904.03;5096495;28;20047;-65
2023/02/07 09:02:31;;;;;;;179.13;46.70;;;2.10;99.90;;;1.92;97.28;103902.88;5096431;28;20097;-66
2023/02/07 09:04:59;;;;;;;172.63;47.13;;;1.80;99.90;;;1.56;98.96;103876.50;5078140;28;20139;-64
2023/02/07 09:07:27;;;;;;;198.70;48.77;;;1.60;99.90;;;1.58;100.00;103887.97;5096440;28;20132;-65
2023/02/07 09:09:56;;;;;;;131.43;46.47;;;1.50;99.90;;;1.55;100.00;103891.22;5096037;28;20079;-65
2023/02/07 09:12:24;;;;;;;196.70;50.03;;;1.40;99.90;;;1.58;100.00;103886.28;5095969;28;20036;-65
2023/02/07 09:14:52;;;;;;;141.77;50.20;;;1.50;99.90;;;1.71;100.00;103877.72;5095934;28;20048;-65
2023/02/07 09:17:22;;;;;;;168.27;51.83;;;1.60;99.90;;;1.75;100.00;103887.59;5095903;28;20052;-66
2023/02/07 09:19:50;;;;;;;130.43;46.55;;;1.60;99.90;;;1.67;100.00;103886.06;5095834;28;20047;-65
2023/02/07 09:22:19;;;;;;;133.13;47.47;;;1.60;99.90;;;2.00;100.00;103896.59;5095699;28;20489;-65
2023/02/07 09:24:48;;;;;;;107.07;47.13;;;1.80;99.90;;;1.94;100.00;103897.78;5095745;28;20040;-65
2023/02/07 09:27:16;;;;;;;151.90;47.20;;;1.70;99.90;;;1.81;100.00;103895.91;5077659;28;20565;-64
2023/02/07 09:29:44;;;;;;;138.00;48.57;;;1.70;99.90;;;2.12;100.00;103892.31;5095569;28;20090;-64
2023/02/07 09:32:13;;;;;;;265.67;53.17;;;1.90;99.90;;;1.71;100.00;103886.47;5094495;28;20036;-65
2023/02/07 09:34:43;;;;;;;160.47;47.83;;;1.70;99.90;;;1.74;100.00;103885.81;5095415;28;20547;-65
2023/02/07 09:37:11;;;;;;;198.35;49.53;;;1.60;99.90;;;1.70;100.00;103892.44;5095528;28;20044;-64
2023/02/07 09:39:41;;;;;;;173.00;50.87;;;1.60;99.90;;;1.60;100.00;103887.31;5095473;28;20044;-64
2023/02/07 09:42:24;;;;;;;159.43;48.67;;;1.50;99.90;;;1.78;100.00;103903.53;5095580;28;20042;-64
2023/02/07 09:44:57;;;;;;;107.47;48.73;;;1.60;99.90;;;2.14;100.00;103895.97;5095471;28;20540;-65
2023/02/07 09:47:27;;;;;;;111.07;48.27;;;1.90;99.90;;;2.18;100.00;103891.88;5095307;28;20047;-64
2023/02/07 09:50:02;;;;;;;98.23;47.73;;;1.90;99.90;;;2.38;100.00;103879.56;5095286;28;20454;-65
2023/02/07 09:52:36;;;;;;;86.10;49.97;;;2.20;99.90;;;2.66;100.00;103887.81;5095268;28;20055;-64
2023/02/07 09:55:06;;;;;;;109.77;51.00;;;2.40;99.90;;;3.10;100.00;103892.06;5095434;28;20082;-65
2023/02/07 09:57:42;;;;;;;88.85;49.15;;;2.80;99.90;;;3.42;100.00;103895.34;5095488;28;20048;-65
2023/02/07 10:00:23;;;;;;;96.00;49.83;;;3.20;99.90;;;3.62;100.00;103881.06;5095704;28;20044;-64
2023/02/07 10:02:54;;;;;;;;;;;3.50;99.90;;;3.79;99.70;103879.66;5096070;28;20051;-65
2023/02/07 10:05:40;;;;;;;86.57;46.40;;;3.70;99.90;;;4.24;99.36;103875.94;5095238;28;19973;-64
2023/02/07 10:08:13;;;;;;;87.40;47.00;;;4.10;99.90;;;4.45;98.34;103869.53;5095306;28;20052;-65
2023/02/07 10:10:46;;;;;;;85.27;46.60;;;4.40;99.90;;;4.50;96.31;103883.91;5095193;28;20040;-65
2023/02/07 10:13:36;;;;;;;90.47;48.30;;;4.40;99.90;;;4.93;96.64;103892.03;5094877;28;20591;-65
2023/02/07 10:16:24;;;;;;;88.83;47.13;;;4.80;99.90;;;4.86;94.24;103884.56;5095003;28;20043;-65
2023/02/07 10:18:59;;;;;;;77.83;44.13;;;4.90;99.90;;;4.89;94.07;103895.25;5094611;28;20377;-65
2023/02/07 10:21:37;;;;;;;83.37;44.90;;;4.70;99.90;;;4.51;92.40;103897.88;5076771;28;20144;-65
2023/02/07 10:24:24;;;;;;;77.40;43.77;;;4.40;99.90;;;4.87;93.54;103897.78;5094644;28;20457;-65
2023/02/07 10:26:55;;;;;;;78.70;44.30;;;4.60;99.90;;;5.28;92.82;103900.53;5076078;28;20086;-65
2023/02/07 10:29:41;;;;;;;77.60;44.28;;;5.10;99.90;;;5.80;91.83;103913.59;5094635;28;20054;-65